Time;durP1;ratioP1;P1;durP2;ratioP2;P2;SDS_P1;SDS_P2;PMS_P1;PMS_P2;Temp;Humidity;BMP_temperature;BMP_pressure;BME280_temperature;BME280_humidity;BME280_pressure;Samples;Min_cycle;Max_cycle;Signal;HPM_P1;HPM_P2
2021/05/09 00:02:10;;;;;;;2.80;2.50;;;14.40;99.90;;;;;;4932811;29;20241;-70
2021/05/09 00:04:36;;;;;;;3.27;2.73;;;14.30;99.90;;;;;;4936400;29;20722;-71
2021/05/09 00:07:02;;;;;;;2.50;2.30;;;14.30;99.90;;;;;;4936395;29;20457;-72
2021/05/09 00:09:28;;;;;;;3.50;2.50;;;14.30;99.90;;;;;;4936870;29;20206;-70
2021/05/09 00:11:53;;;;;;;2.80;2.27;;;14.30;99.90;;;;;;4936857;29;20982;-70
2021/05/09 00:14:19;;;;;;;2.53;2.33;;;14.30;99.90;;;;;;4933621;29;20245;-70
2021/05/09 00:16:44;;;;;;;2.50;2.30;;;14.20;99.90;;;;;;4936289;29;20859;-71
2021/05/09 00:19:10;;;;;;;2.40;2.13;;;14.20;99.90;;;;;;4937313;29;20190;-71
2021/05/09 00:21:36;;;;;;;2.60;2.40;;;14.20;99.90;;;;;;4939757;29;20588;-71
2021/05/09 00:24:01;;;;;;;3.67;3.00;;;14.20;99.90;;;;;;4943457;29;20232;-71
2021/05/09 00:26:27;;;;;;;2.90;2.60;;;14.20;99.90;;;;;;4937759;29;20229;-71
2021/05/09 00:28:52;;;;;;;3.67;2.50;;;14.20;99.90;;;;;;4936248;29;20405;-69
2021/05/09 00:31:18;;;;;;;3.03;2.73;;;14.30;99.90;;;;;;4937018;29;20178;-71
2021/05/09 00:33:44;;;;;;;2.60;2.40;;;14.20;99.90;;;;;;4936511;29;20270;-72
2021/05/09 00:36:10;;;;;;;2.50;2.30;;;14.20;99.90;;;;;;4937207;29;20224;-70
2021/05/09 00:38:35;;;;;;;7.40;2.20;;;14.20;99.90;;;;;;4936663;29;20900;-71
2021/05/09 00:41:01;;;;;;;2.57;2.37;;;14.20;99.90;;;;;;4949072;29;20185;-71
2021/05/09 00:43:27;;;;;;;4.80;2.47;;;14.20;99.90;;;;;;4954609;29;20178;-71
2021/05/09 00:45:53;;;;;;;2.90;2.70;;;14.10;99.90;;;;;;4948006;29;20214;-71
2021/05/09 00:48:19;;;;;;;2.77;2.20;;;14.20;99.90;;;;;;4938368;29;20689;-69
2021/05/09 00:50:45;;;;;;;2.40;2.30;;;14.10;99.90;;;;;;4940617;29;20418;-70
2021/05/09 00:53:13;;;;;;;2.57;2.37;;;14.10;99.90;;;;;;4936426;29;20466;-70
2021/05/09 00:55:39;;;;;;;3.00;2.80;;;14.10;99.90;;;;;;4936660;29;20449;-70
2021/05/09 00:58:10;;;;;;;2.53;2.30;;;14.10;99.90;;;;;;4936854;29;20417;-71
2021/05/09 01:00:36;;;;;;;2.20;2.10;;;14.10;99.90;;;;;;4936396;28;20441;-71
2021/05/09 01:03:06;;;;;;;3.13;2.83;;;14.10;99.90;;;;;;4936439;29;20418;-71
2021/05/09 01:05:32;;;;;;;2.90;2.67;;;14.10;99.90;;;;;;4936323;29;20205;-71
2021/05/09 01:07:57;;;;;;;3.03;2.67;;;14.00;99.90;;;;;;4936301;29;20406;-71
2021/05/09 01:10:23;;;;;;;2.57;2.37;;;14.00;99.90;;;;;;4935549;29;20594;-70
2021/05/09 01:12:48;;;;;;;3.73;2.67;;;14.00;99.90;;;;;;4920159;29;20207;-71
2021/05/09 01:15:14;;;;;;;3.20;2.60;;;14.00;99.90;;;;;;4916391;29;20431;-71
2021/05/09 01:17:40;;;;;;;2.57;2.37;;;14.00;99.90;;;;;;4918164;29;20234;-71
2021/05/09 01:20:14;;;;;;;3.07;2.80;;;14.00;99.90;;;;;;4919141;29;20186;-72
2021/05/09 01:22:40;;;;;;;4.88;2.63;;;14.00;99.90;;;;;;4935725;28;20504;-71
2021/05/09 01:25:07;;;;;;;3.10;2.10;;;14.00;99.90;;;;;;4935594;29;20579;-71
2021/05/09 01:27:33;;;;;;;2.57;2.37;;;13.90;99.90;;;;;;4936669;29;20422;-71
2021/05/09 01:29:59;;;;;;;2.40;2.20;;;13.90;99.90;;;;;;4938927;29;20524;-72
2021/05/09 01:32:24;;;;;;;3.23;2.60;;;13.90;99.90;;;;;;4939853;29;20463;-71
2021/05/09 01:34:50;;;;;;;2.93;2.60;;;13.90;99.90;;;;;;4940418;29;20218;-72
2021/05/09 01:40:38;;;;;;;3.00;2.80;;;13.80;99.90;;;;;;4940206;29;20165;-71
2021/05/09 01:43:03;;;;;;;3.37;3.07;;;13.80;99.90;;;;;;4939130;29;20410;-71
2021/05/09 01:45:29;;;;;;;3.00;2.80;;;13.70;99.90;;;;;;4938892;29;20256;-71
2021/05/09 01:47:54;;;;;;;2.73;2.53;;;13.70;99.90;;;;;;4939817;29;20167;-71
2021/05/09 01:50:20;;;;;;;2.67;2.47;;;13.60;99.90;;;;;;4939565;29;20182;-71
2021/05/09 01:52:47;;;;;;;4.30;2.60;;;13.60;99.90;;;;;;4938337;29;20261;-71
2021/05/09 01:55:16;;;;;;;4.50;2.47;;;13.50;99.90;;;;;;4938009;29;20473;-71
2021/05/09 01:57:41;;;;;;;3.50;2.57;;;13.50;99.90;;;;;;4939302;29;20426;-71
2021/05/09 02:00:33;;;;;;;2.83;2.63;;;13.50;99.90;;;;;;4938589;29;20513;-71
2021/05/09 02:03:00;;;;;;;4.13;2.50;;;13.50;99.90;;;;;;4928109;29;20661;-71
2021/05/09 02:05:25;;;;;;;3.00;2.80;;;13.50;99.90;;;;;;4919982;29;20466;-71
2021/05/09 02:07:51;;;;;;;2.97;2.63;;;13.50;99.90;;;;;;4921202;29;20426;-71
2021/05/09 02:10:16;;;;;;;4.30;2.73;;;13.50;99.90;;;;;;4920920;29;20652;-71
2021/05/09 02:12:42;;;;;;;4.40;2.60;;;13.40;99.90;;;;;;4926080;29;20210;-70
2021/05/09 02:15:09;;;;;;;4.13;2.80;;;13.50;99.90;;;;;;4922747;29;20222;-71
2021/05/09 02:17:34;;;;;;;2.90;2.70;;;13.40;99.90;;;;;;4920653;29;20194;-70
2021/05/09 02:20:01;;;;;;;3.27;2.90;;;13.40;99.90;;;;;;4934209;29;20512;-71
2021/05/09 02:22:26;;;;;;;3.00;2.80;;;13.30;99.90;;;;;;4939339;29;20182;-71
2021/05/09 02:24:52;;;;;;;2.73;2.53;;;13.30;99.90;;;;;;4937479;29;20488;-71
2021/05/09 02:27:17;;;;;;;3.50;3.20;;;13.20;99.90;;;;;;4939111;29;20179;-70
2021/05/09 02:29:43;;;;;;;3.90;3.50;;;13.10;99.90;;;;;;4938756;28;20229;-71
2021/05/09 02:32:08;;;;;;;2.77;2.57;;;13.00;99.90;;;;;;4920448;29;20194;-70
2021/05/09 02:34:35;;;;;;;3.33;3.03;;;12.90;99.90;;;;;;4921281;29;20280;-70
2021/05/09 02:37:02;;;;;;;3.17;2.90;;;12.90;99.90;;;;;;4919457;29;20189;-70
2021/05/09 02:39:27;;;;;;;3.37;3.07;;;12.80;99.90;;;;;;4919778;29;20498;-71
2021/05/09 02:41:53;;;;;;;3.10;2.80;;;12.70;99.90;;;;;;4919888;29;20590;-70
2021/05/09 02:44:18;;;;;;;3.13;2.93;;;12.60;99.90;;;;;;4919795;29;20710;-70
2021/05/09 02:46:44;;;;;;;3.23;2.90;;;12.60;99.90;;;;;;4920876;29;20178;-70
2021/05/09 02:49:09;;;;;;;3.23;2.93;;;12.60;99.90;;;;;;4919886;29;20179;-70
2021/05/09 02:51:35;;;;;;;3.33;3.07;;;12.60;99.90;;;;;;4923157;29;20226;-70
2021/05/09 02:54:01;;;;;;;3.60;3.30;;;12.60;99.90;;;;;;4922908;29;20229;-70
2021/05/09 02:56:26;;;;;;;4.27;3.87;;;12.50;99.90;;;;;;4925279;29;20183;-70
2021/05/09 02:58:52;;;;;;;3.37;3.07;;;12.50;99.90;;;;;;4923463;29;20502;-70
2021/05/09 03:01:17;;;;;;;5.03;3.23;;;12.60;99.90;;;;;;4920140;29;20257;-70
2021/05/09 03:03:43;;;;;;;6.80;4.67;;;12.50;99.90;;;;;;4934121;29;20190;-70
2021/05/09 03:06:09;;;;;;;4.10;3.70;;;12.50;99.90;;;;;;4920410;29;20446;-70
2021/05/09 03:08:34;;;;;;;3.33;3.00;;;12.50;99.90;;;;;;4939661;29;20221;-70
2021/05/09 03:11:01;;;;;;;3.50;3.20;;;12.50;99.90;;;;;;4940613;29;20178;-70
2021/05/09 03:13:27;;;;;;;3.63;3.10;;;12.50;99.90;;;;;;4939816;29;20433;-70
2021/05/09 03:15:52;;;;;;;3.10;2.57;;;12.60;99.90;;;;;;4953063;29;20579;-70
2021/05/09 03:18:18;;;;;;;3.10;2.90;;;12.70;99.90;;;;;;4936668;29;20430;-70
2021/05/09 03:20:43;;;;;;;3.00;2.70;;;12.70;99.90;;;;;;4938456;29;20328;-70
2021/05/09 03:23:09;;;;;;;3.87;3.53;;;12.80;99.90;;;;;;4938155;29;20186;-70
2021/05/09 03:25:35;;;;;;;3.27;2.97;;;12.80;99.90;;;;;;4938063;29;20266;-70
2021/05/09 03:28:00;;;;;;;3.30;3.00;;;12.80;99.90;;;;;;4936680;29;20632;-70
2021/05/09 03:30:26;;;;;;;3.60;3.30;;;12.80;99.90;;;;;;4937796;28;20202;-70
2021/05/09 03:32:54;;;;;;;3.80;3.50;;;12.70;99.90;;;;;;4931420;29;20231;-70
2021/05/09 03:35:20;;;;;;;4.40;3.57;;;12.70;99.90;;;;;;4919853;29;20278;-70
2021/05/09 03:37:45;;;;;;;3.20;2.90;;;12.70;99.90;;;;;;4941585;29;20857;-70
2021/05/09 03:40:11;;;;;;;3.30;3.00;;;12.70;99.90;;;;;;4938008;29;20490;-71
2021/05/09 03:42:37;;;;;;;3.73;2.70;;;12.70;99.90;;;;;;4937652;29;20183;-71
2021/05/09 03:45:03;;;;;;;3.60;3.30;;;12.70;99.90;;;;;;4936986;29;20292;-71
2021/05/09 03:47:29;;;;;;;4.13;3.47;;;12.60;99.90;;;;;;4936982;29;20607;-71
2021/05/09 03:49:56;;;;;;;3.50;3.20;;;12.60;99.90;;;;;;4936017;28;20453;-72
2021/05/09 03:52:22;;;;;;;3.80;2.97;;;12.50;99.90;;;;;;4936578;29;20217;-71
2021/05/09 03:54:47;;;;;;;3.50;3.20;;;12.50;99.90;;;;;;4936562;29;20450;-71
2021/05/09 03:57:13;;;;;;;3.07;2.87;;;12.50;99.90;;;;;;4935796;29;20483;-71
2021/05/09 03:59:39;;;;;;;3.63;3.13;;;12.50;99.90;;;;;;4935677;29;20434;-71
2021/05/09 04:02:05;;;;;;;3.20;2.80;;;12.50;99.90;;;;;;4936873;28;20289;-71
2021/05/09 04:04:30;;;;;;;4.27;2.90;;;12.50;99.90;;;;;;4936021;29;20995;-71
2021/05/09 04:06:56;;;;;;;4.10;3.23;;;12.50;99.90;;;;;;4936897;29;20206;-71
2021/05/09 04:09:22;;;;;;;2.90;2.70;;;12.60;99.90;;;;;;4935385;29;20225;-71
2021/05/09 04:11:47;;;;;;;3.10;2.80;;;12.60;99.90;;;;;;4937440;29;20162;-71
2021/05/09 04:14:13;;;;;;;3.90;2.90;;;12.60;99.90;;;;;;4937043;29;20210;-71
2021/05/09 04:16:38;;;;;;;3.33;2.60;;;12.70;99.90;;;;;;4931916;29;20551;-71
2021/05/09 04:19:04;;;;;;;3.20;2.90;;;12.70;99.90;;;;;;4917858;29;20226;-71
2021/05/09 04:21:29;;;;;;;4.10;2.97;;;12.70;99.90;;;;;;4929018;29;20557;-70
2021/05/09 04:23:55;;;;;;;3.60;3.30;;;12.70;99.90;;;;;;4936516;29;20535;-71
2021/05/09 04:26:20;;;;;;;3.37;3.17;;;12.50;99.90;;;;;;4937570;29;20181;-71
2021/05/09 04:28:46;;;;;;;3.97;3.67;;;12.50;99.90;;;;;;4936593;29;20194;-71
2021/05/09 04:31:12;;;;;;;4.80;3.20;;;12.50;99.90;;;;;;4934848;29;20178;-71
2021/05/09 04:33:37;;;;;;;3.80;3.50;;;12.40;99.90;;;;;;4936256;29;20178;-71
2021/05/09 04:36:04;;;;;;;4.23;3.67;;;12.40;99.90;;;;;;4950680;29;20203;-71
2021/05/09 04:38:29;;;;;;;4.20;3.17;;;12.40;99.90;;;;;;4935120;29;20209;-71
2021/05/09 04:40:55;;;;;;;2.70;2.50;;;12.50;99.90;;;;;;4935039;29;20454;-71
2021/05/09 04:43:21;;;;;;;3.20;2.63;;;12.60;99.90;;;;;;4933223;29;20185;-71
2021/05/09 04:45:50;;;;;;;7.00;3.07;;;12.60;99.90;;;;;;4929948;29;20230;-71
2021/05/09 04:48:16;;;;;;;3.27;2.50;;;12.70;99.90;;;;;;4922205;29;20436;-71
2021/05/09 04:50:42;;;;;;;3.10;2.80;;;12.80;99.90;;;;;;4936466;29;20406;-71
2021/05/09 04:53:33;;;;;;;4.83;2.73;;;12.90;99.90;;;;;;4934857;29;20430;-71
2021/05/09 04:56:01;;;;;;;3.83;2.83;;;12.90;99.90;;;;;;4917630;29;20222;-71
2021/05/09 04:58:27;;;;;;;2.90;2.70;;;13.00;99.90;;;;;;4921320;29;20438;-71
2021/05/09 05:00:55;;;;;;;3.83;2.80;;;13.00;99.90;;;;;;4936932;29;20410;-71
2021/05/09 05:03:21;;;;;;;2.80;2.60;;;13.10;99.90;;;;;;4934330;29;20505;-71
2021/05/09 05:05:46;;;;;;;3.20;2.90;;;13.10;99.90;;;;;;4951347;29;20470;-71
2021/05/09 05:08:12;;;;;;;2.80;2.60;;;13.20;99.90;;;;;;4936674;29;20189;-71
2021/05/09 05:10:37;;;;;;;2.90;2.70;;;13.20;99.90;;;;;;4917182;29;20286;-71
2021/05/09 05:13:15;;;;;;;7.60;2.77;;;13.30;99.90;;;;;;4918553;29;20571;-71
2021/05/09 05:15:40;;;;;;;2.47;2.33;;;13.40;99.90;;;;;;4917497;29;20229;-71
2021/05/09 05:18:06;;;;;;;2.73;2.53;;;13.40;99.90;;;;;;4918061;29;20884;-71
2021/05/09 05:20:32;;;;;;;5.10;2.80;;;13.50;99.90;;;;;;4917238;29;20206;-71
2021/05/09 05:22:57;;;;;;;4.50;2.63;;;13.60;99.90;;;;;;4918016;29;20435;-71
2021/05/09 05:25:23;;;;;;;2.73;2.43;;;13.70;99.90;;;;;;4917389;29;20285;-71
2021/05/09 05:27:48;;;;;;;2.70;2.50;;;13.80;99.90;;;;;;4917026;29;20257;-71
2021/05/09 05:30:14;;;;;;;2.67;2.50;;;13.80;99.90;;;;;;4917904;29;20191;-71
2021/05/09 05:32:40;;;;;;;2.80;2.60;;;13.90;99.90;;;;;;4931070;28;20563;-71
2021/05/09 05:35:06;;;;;;;2.70;2.50;;;13.90;99.90;;;;;;4936411;29;20449;-72
2021/05/09 05:37:32;;;;;;;2.80;2.60;;;14.00;99.90;;;;;;4935896;29;20569;-71
2021/05/09 05:39:57;;;;;;;3.10;2.77;;;14.00;99.90;;;;;;4935775;29;20787;-69
2021/05/09 05:42:23;;;;;;;2.50;2.20;;;14.10;99.90;;;;;;4934200;29;20655;-71
2021/05/09 05:44:48;;;;;;;2.33;2.13;;;14.10;99.90;;;;;;4935741;28;20233;-71
2021/05/09 05:47:14;;;;;;;2.33;2.13;;;14.20;99.90;;;;;;4936536;29;20273;-71
2021/05/09 05:49:39;;;;;;;2.20;2.00;;;14.30;99.90;;;;;;4935713;29;20178;-69
2021/05/09 05:52:05;;;;;;;2.60;2.37;;;14.30;99.90;;;;;;4934261;29;20221;-71
2021/05/09 05:54:30;;;;;;;3.63;2.10;;;14.40;99.90;;;;;;4935147;29;20264;-70
2021/05/09 05:56:56;;;;;;;2.90;2.13;;;14.40;99.90;;;;;;4936043;29;20265;-70
2021/05/09 05:59:21;;;;;;;2.20;2.00;;;14.50;99.90;;;;;;4934228;29;20226;-70
2021/05/09 06:01:47;;;;;;;2.30;2.20;;;14.50;99.90;;;;;;4935351;29;20178;-70
2021/05/09 06:04:12;;;;;;;2.50;2.10;;;14.50;99.90;;;;;;4934070;29;20297;-70
2021/05/09 06:06:38;;;;;;;3.20;2.07;;;14.60;99.90;;;;;;4935326;28;20254;-71
2021/05/09 06:09:04;;;;;;;6.30;2.77;;;14.70;99.90;;;;;;4923403;29;20186;-71
2021/05/09 06:11:30;;;;;;;4.30;1.90;;;14.70;99.90;;;;;;4916978;29;20669;-70
2021/05/09 06:13:55;;;;;;;2.70;2.30;;;14.80;99.90;;;;;;4917779;29;20960;-70
2021/05/09 06:16:21;;;;;;;2.20;2.00;;;14.80;99.90;;;;;;4920731;29;20285;-71
2021/05/09 06:18:46;;;;;;;5.50;2.20;;;14.90;99.90;;;;;;4920563;29;20770;-70
2021/05/09 06:21:12;;;;;;;2.47;2.27;;;15.00;99.90;;;;;;4921936;29;20171;-71
2021/05/09 06:23:37;;;;;;;3.83;2.47;;;15.10;99.90;;;;;;4938331;29;20179;-70
2021/05/09 06:26:03;;;;;;;2.63;2.43;;;15.20;99.90;;;;;;4942910;29;20297;-70
2021/05/09 06:28:28;;;;;;;2.90;2.40;;;15.30;99.90;;;;;;4941594;29;20175;-70
2021/05/09 06:30:54;;;;;;;2.40;2.10;;;15.30;99.90;;;;;;4918946;29;20297;-70
2021/05/09 06:33:19;;;;;;;2.03;1.90;;;15.40;99.90;;;;;;4920779;29;20226;-70
2021/05/09 06:35:45;;;;;;;2.63;2.23;;;15.50;99.90;;;;;;4920745;29;20286;-71
2021/05/09 06:38:11;;;;;;;2.07;1.97;;;15.60;99.90;;;;;;4918780;29;20254;-70
2021/05/09 06:40:37;;;;;;;3.30;2.23;;;15.70;99.90;;;;;;4920346;29;20250;-71
2021/05/09 06:43:05;;;;;;;2.77;2.03;;;15.80;99.90;;;;;;4919806;29;20364;-71
2021/05/09 06:45:33;;;;;;;2.37;2.20;;;15.90;99.90;;;;;;4935887;29;21005;-71
2021/05/09 06:48:02;;;;;;;2.23;1.80;;;16.00;99.90;;;;;;4939010;29;20756;-70
2021/05/09 06:50:29;;;;;;;2.90;2.07;;;16.10;99.90;;;;;;4942292;29;20474;-70
2021/05/09 06:52:55;;;;;;;3.47;2.13;;;16.10;99.90;;;;;;4939981;29;20402;-71
2021/05/09 06:55:21;;;;;;;4.00;2.10;;;16.20;99.80;;;;;;4937173;29;20437;-71
2021/05/09 06:57:47;;;;;;;2.00;1.90;;;16.30;99.70;;;;;;4936475;29;20956;-71
2021/05/09 07:00:14;;;;;;;2.03;1.87;;;16.40;99.60;;;;;;4938841;29;20182;-71
2021/05/09 07:02:41;;;;;;;3.50;2.53;;;16.50;99.40;;;;;;4938399;29;20414;-71
2021/05/09 07:05:07;;;;;;;2.97;2.30;;;16.50;99.30;;;;;;4923333;29;20558;-72
2021/05/09 07:07:32;;;;;;;1.90;1.80;;;16.60;99.20;;;;;;4921766;29;20585;-71
2021/05/09 07:09:58;;;;;;;2.40;2.20;;;16.70;99.40;;;;;;4924053;29;20854;-70
2021/05/09 07:12:23;;;;;;;2.60;2.03;;;16.80;99.30;;;;;;4923664;29;20236;-70
2021/05/09 07:14:49;;;;;;;2.13;2.00;;;17.00;99.30;;;;;;4949549;29;20214;-72
2021/05/09 07:17:16;;;;;;;2.50;2.30;;;17.30;99.10;;;;;;4938658;28;20217;-70
2021/05/09 07:19:43;;;;;;;1.93;1.83;;;17.30;99.10;;;;;;4919168;29;20187;-71
2021/05/09 07:22:16;;;;;;;2.30;2.10;;;17.40;98.60;;;;;;4919051;29;20419;-70
2021/05/09 07:24:44;;;;;;;2.30;2.10;;;17.50;98.50;;;;;;4919048;29;20581;-70
2021/05/09 07:27:10;;;;;;;2.97;2.30;;;17.50;98.50;;;;;;4919624;29;20442;-70
2021/05/09 07:29:35;;;;;;;2.40;2.17;;;17.60;98.50;;;;;;4918675;29;20526;-70
2021/05/09 07:32:01;;;;;;;2.30;2.00;;;17.70;98.50;;;;;;4918905;29;20649;-71
2021/05/09 07:34:26;;;;;;;2.00;1.90;;;17.70;98.50;;;;;;4925560;29;20206;-71
2021/05/09 07:36:52;;;;;;;2.43;2.17;;;17.70;98.40;;;;;;4925231;29;20191;-70
2021/05/09 07:39:18;;;;;;;2.50;2.30;;;17.80;98.40;;;;;;4917694;29;20294;-70
2021/05/09 07:41:43;;;;;;;3.13;2.43;;;17.80;98.40;;;;;;4918016;29;20182;-71
2021/05/09 07:44:09;;;;;;;2.13;2.03;;;17.90;98.40;;;;;;4923356;29;20446;-72
2021/05/09 07:46:34;;;;;;;3.43;2.50;;;17.90;98.50;;;;;;4918275;29;20254;-72
2021/05/09 07:49:00;;;;;;;2.50;2.30;;;18.00;98.60;;;;;;4921161;28;20935;-72
2021/05/09 07:51:25;;;;;;;2.30;2.10;;;18.00;98.50;;;;;;4935323;29;20181;-72
2021/05/09 07:53:51;;;;;;;2.77;2.53;;;18.20;98.50;;;;;;4936021;29;20539;-72
2021/05/09 07:56:18;;;;;;;2.80;2.60;;;18.30;98.40;;;;;;4926964;29;20427;-72
2021/05/09 07:58:44;;;;;;;2.70;2.50;;;18.30;98.40;;;;;;4932335;29;20190;-72
2021/05/09 08:01:09;;;;;;;2.93;2.33;;;18.50;98.20;;;;;;4936265;29;20425;-71
2021/05/09 08:03:35;;;;;;;2.80;2.50;;;18.60;98.00;;;;;;4935178;29;20182;-71
2021/05/09 08:06:01;;;;;;;2.97;2.37;;;18.70;97.90;;;;;;4924002;29;20209;-72
2021/05/09 08:08:27;;;;;;;3.40;2.40;;;18.80;98.00;;;;;;4936538;29;20410;-72
2021/05/09 08:10:53;;;;;;;3.13;2.83;;;18.80;97.90;;;;;;4926790;29;20237;-72
2021/05/09 08:13:19;;;;;;;2.50;2.30;;;18.90;97.80;;;;;;4922753;29;20477;-73
2021/05/09 08:15:44;;;;;;;3.07;2.87;;;19.10;97.80;;;;;;4932288;29;20596;-70
2021/05/09 08:18:10;;;;;;;7.10;2.73;;;19.20;97.70;;;;;;4891499;29;20678;-69
2021/05/09 08:20:36;;;;;;;2.60;2.50;;;19.30;97.70;;;;;;4930255;29;20186;-71
2021/05/09 08:23:03;;;;;;;4.10;2.20;;;19.40;97.40;;;;;;4929279;29;20193;-71
2021/05/09 08:25:28;;;;;;;2.80;2.50;;;19.40;97.20;;;;;;4930633;29;20537;-70
2021/05/09 08:27:54;;;;;;;2.73;2.53;;;19.50;97.20;;;;;;4930440;29;20433;-71
2021/05/09 08:30:23;;;;;;;4.90;2.37;;;19.60;97.00;;;;;;4932566;29;20599;-71
2021/05/09 08:32:49;;;;;;;2.57;2.47;;;19.60;97.10;;;;;;4927544;29;20186;-71
2021/05/09 08:35:15;;;;;;;3.43;2.47;;;19.60;97.00;;;;;;4931112;29;20460;-71
2021/05/09 08:37:42;;;;;;;3.80;2.37;;;19.80;96.90;;;;;;4932917;29;20418;-71
2021/05/09 08:40:09;;;;;;;3.13;2.77;;;19.90;96.70;;;;;;4933728;29;20178;-71
2021/05/09 08:42:35;;;;;;;2.50;2.40;;;19.90;96.50;;;;;;4929388;29;20571;-71
2021/05/09 08:45:01;;;;;;;2.37;2.17;;;20.10;96.50;;;;;;4930569;29;20553;-71
2021/05/09 08:47:37;;;;;;;3.20;2.63;;;20.10;96.30;;;;;;4930069;29;20236;-71
2021/05/09 08:50:15;;;;;;;3.10;2.70;;;20.30;96.30;;;;;;4935400;29;20313;-71
2021/05/09 08:52:42;;;;;;;2.30;2.10;;;20.40;96.00;;;;;;4936501;29;20768;-71
2021/05/09 08:55:12;;;;;;;2.50;2.17;;;20.50;95.90;;;;;;4921952;29;20517;-71
2021/05/09 08:57:41;;;;;;;2.50;2.30;;;20.70;95.70;;;;;;4933869;29;20422;-72
2021/05/09 09:00:09;;;;;;;2.83;2.63;;;20.80;95.60;;;;;;4933394;29;21053;-71
2021/05/09 09:02:34;;;;;;;2.90;2.70;;;21.00;95.40;;;;;;4933015;29;20455;-71
2021/05/09 09:05:00;;;;;;;2.73;2.53;;;21.20;95.30;;;;;;4925400;29;20941;-72
2021/05/09 09:07:47;;;;;;;3.03;2.23;;;21.40;95.10;;;;;;4931207;29;20178;-72
2021/05/09 09:10:35;;;;;;;2.50;2.00;;;21.60;95.00;;;;;;4931665;29;20418;-70
2021/05/09 09:13:02;;;;;;;2.47;2.30;;;21.90;94.70;;;;;;4931788;29;20437;-70
2021/05/09 09:15:53;;;;;;;2.67;2.47;;;22.00;94.50;;;;;;4928636;29;20524;-70
2021/05/09 09:18:35;;;;;;;2.77;2.50;;;22.10;94.20;;;;;;4931467;29;20813;-70
2021/05/09 09:21:23;;;;;;;2.33;2.13;;;22.10;94.30;;;;;;4932526;29;20422;-70
2021/05/09 09:23:50;;;;;;;2.80;2.60;;;22.20;94.30;;;;;;4932287;29;20422;-71
2021/05/09 09:26:26;;;;;;;4.60;2.70;;;22.30;94.40;;;;;;4927319;29;20534;-71
2021/05/09 09:28:52;;;;;;;3.47;3.17;;;22.30;94.20;;;;;;4932257;29;20465;-72
2021/05/09 09:31:42;;;;;;;2.80;2.60;;;22.30;94.10;;;;;;4930586;29;20433;-72
2021/05/09 09:34:07;;;;;;;2.30;2.20;;;22.20;93.90;;;;;;4921742;29;20551;-71
2021/05/09 09:36:34;;;;;;;2.53;2.17;;;22.30;94.00;;;;;;4932756;29;20426;-72
2021/05/09 09:38:59;;;;;;;3.60;2.70;;;22.30;93.70;;;;;;4933262;29;20186;-71
2021/05/09 09:41:25;;;;;;;2.77;2.57;;;22.40;93.70;;;;;;4933725;29;20489;-71
2021/05/09 09:44:08;;;;;;;2.70;2.50;;;22.50;93.80;;;;;;4932505;29;20199;-71
2021/05/09 09:46:36;;;;;;;2.43;2.20;;;22.60;93.60;;;;;;4925529;29;20197;-71
2021/05/09 09:49:03;;;;;;;2.83;2.63;;;22.70;93.20;;;;;;4930535;29;20811;-71
2021/05/09 09:51:29;;;;;;;2.70;2.50;;;22.80;92.90;;;;;;4935544;29;20513;-70
2021/05/09 09:53:56;;;;;;;3.03;2.30;;;22.90;92.80;;;;;;4935587;29;20414;-71
2021/05/09 09:56:24;;;;;;;2.40;2.20;;;22.90;92.40;;;;;;4936077;29;20514;-70
2021/05/09 09:59:04;;;;;;;2.50;2.40;;;22.90;92.50;;;;;;4936164;29;20418;-70
2021/05/09 10:01:35;;;;;;;2.97;2.77;;;23.00;92.60;;;;;;4936308;29;20421;-70
2021/05/09 10:04:08;;;;;;;2.40;2.20;;;23.00;92.30;;;;;;4925870;29;20508;-72
2021/05/09 10:06:34;;;;;;;2.57;2.33;;;23.00;92.40;;;;;;4936421;29;20445;-72
2021/05/09 10:09:01;;;;;;;4.93;2.90;;;23.20;92.50;;;;;;4938189;29;20417;-71
2021/05/09 10:11:28;;;;;;;3.47;2.50;;;23.40;92.20;;;;;;4929645;29;20904;-72
2021/05/09 10:13:55;;;;;;;3.70;2.87;;;23.50;91.50;;;;;;4935376;29;20269;-72
2021/05/09 10:16:25;;;;;;;2.27;2.10;;;23.50;91.20;;;;;;4935095;29;20450;-70
2021/05/09 10:18:56;;;;;;;2.60;2.40;;;23.60;91.00;;;;;;4935599;29;20821;-71
2021/05/09 10:21:29;;;;;;;2.43;2.33;;;23.60;90.90;;;;;;4933242;29;20453;-71
2021/05/09 10:24:08;;;;;;;2.97;2.70;;;23.60;90.80;;;;;;4935096;29;21165;-71
2021/05/09 10:26:46;;;;;;;2.60;2.40;;;23.60;90.80;;;;;;4935508;29;20484;-71
2021/05/09 10:29:41;;;;;;;4.03;2.87;;;23.60;91.10;;;;;;4935398;29;20426;-71
2021/05/09 10:32:19;;;;;;;2.90;2.70;;;23.70;90.90;;;;;;4920944;29;20435;-72
2021/05/09 10:34:56;;;;;;;2.47;2.37;;;23.70;90.70;;;;;;4934253;29;20461;-72
2021/05/09 10:37:42;;;;;;;2.43;2.23;;;23.70;90.50;;;;;;4944667;29;20413;-72
2021/05/09 10:40:39;;;;;;;3.60;2.50;;;23.80;90.40;;;;;;4935729;29;20421;-72
2021/05/09 10:43:05;;;;;;;2.77;2.57;;;23.80;90.50;;;;;;4928057;29;20557;-69
2021/05/09 10:45:36;;;;;;;4.10;2.63;;;23.80;90.10;;;;;;4928395;29;20505;-71
2021/05/09 10:50:44;;;;;;;2.80;2.60;;;23.80;90.20;;;;;;4935478;29;20428;-71
2021/05/09 10:53:30;;;;;;;3.33;2.90;;;23.70;90.00;;;;;;4931644;29;20439;-71
2021/05/09 10:55:56;;;;;;;2.87;2.67;;;23.80;90.10;;;;;;4934452;29;20449;-71
2021/05/09 10:58:48;;;;;;;2.27;2.17;;;23.70;89.30;;;;;;4934730;29;20500;-71
2021/05/09 11:01:19;;;;;;;2.67;2.47;;;23.60;89.40;;;;;;4935184;29;20426;-71
2021/05/09 11:03:50;;;;;;;2.80;2.60;;;23.60;89.80;;;;;;4932268;29;20434;-71
2021/05/09 11:06:26;;;;;;;3.07;2.47;;;23.60;90.10;;;;;;4925363;29;20474;-70
2021/05/09 11:08:58;;;;;;;3.63;2.73;;;23.60;90.10;;;;;;4934862;29;20510;-71
2021/05/09 11:11:30;;;;;;;4.20;2.50;;;23.60;90.00;;;;;;4935206;29;20780;-71
2021/05/09 11:13:59;;;;;;;2.30;2.17;;;23.70;89.70;;;;;;4933616;29;20549;-71
2021/05/09 11:16:28;;;;;;;2.27;2.17;;;23.70;88.60;;;;;;4933572;29;20486;-72
2021/05/09 11:19:07;;;;;;;3.03;2.40;;;23.70;88.60;;;;;;4934160;29;20911;-71
2021/05/09 11:21:56;;;;;;;3.00;2.53;;;23.80;88.70;;;;;;4930061;29;20868;-71
2021/05/09 11:24:24;;;;;;;2.33;2.20;;;23.80;88.10;;;;;;4934600;29;20959;-71
2021/05/09 11:26:58;;;;;;;3.23;2.33;;;23.90;87.90;;;;;;4938688;29;20454;-71
2021/05/09 11:29:28;;;;;;;2.63;2.43;;;24.00;87.60;;;;;;4942456;29;20553;-71
2021/05/09 11:31:56;;;;;;;2.93;2.23;;;24.00;87.40;;;;;;4940694;29;20498;-72
2021/05/09 11:34:24;;;;;;;3.03;2.83;;;24.10;87.30;;;;;;4934208;29;20924;-71
2021/05/09 11:36:57;;;;;;;2.80;2.40;;;24.20;86.50;;;;;;4922679;29;20960;-71
2021/05/09 11:39:35;;;;;;;2.80;2.60;;;24.20;86.40;;;;;;4933317;29;20426;-71
2021/05/09 11:42:18;;;;;;;6.43;3.90;;;24.20;86.00;;;;;;4933482;29;21002;-71
2021/05/09 11:44:56;;;;;;;2.60;2.40;;;24.20;85.90;;;;;;4912875;29;20870;-71
2021/05/09 11:47:23;;;;;;;4.47;2.43;;;24.20;86.20;;;;;;4916790;29;20171;-71
2021/05/09 11:49:53;;;;;;;3.70;2.60;;;24.20;85.20;;;;;;4914274;29;20415;-71
2021/05/09 11:52:21;;;;;;;2.80;2.00;;;24.20;85.80;;;;;;4913701;29;20434;-70
2021/05/09 11:54:58;;;;;;;3.03;2.80;;;24.20;86.20;;;;;;4913899;29;20470;-71
2021/05/09 11:57:26;;;;;;;2.73;2.50;;;24.20;86.50;;;;;;4915234;29;20426;-71
2021/05/09 12:00:00;;;;;;;2.90;2.60;;;24.20;86.10;;;;;;4914084;29;20905;-71
2021/05/09 12:02:37;;;;;;;2.70;2.50;;;24.20;86.40;;;;;;4913763;29;20485;-72
2021/05/09 12:05:11;;;;;;;3.87;2.77;;;24.20;85.60;;;;;;4915679;29;20490;-72
2021/05/09 12:07:59;;;;;;;2.70;2.50;;;24.20;85.50;;;;;;4915092;29;20441;-72
2021/05/09 12:10:26;;;;;;;2.33;2.13;;;24.20;85.10;;;;;;4935008;29;20422;-72
2021/05/09 12:13:09;;;;;;;2.50;2.30;;;24.20;85.00;;;;;;4935103;29;20442;-72
2021/05/09 12:15:39;;;;;;;3.60;3.23;;;24.10;84.80;;;;;;4935865;29;20466;-72
2021/05/09 12:18:06;;;;;;;3.30;2.60;;;24.10;85.00;;;;;;4933542;29;20460;-72
2021/05/09 12:20:40;;;;;;;2.77;2.57;;;24.10;84.90;;;;;;4933330;29;20433;-72
2021/05/09 12:23:18;;;;;;;5.63;2.40;;;24.10;84.70;;;;;;4934279;29;20921;-71
2021/05/09 12:25:48;;;;;;;2.40;2.30;;;24.10;83.90;;;;;;4935143;29;20484;-69
2021/05/09 12:28:16;;;;;;;2.60;2.40;;;24.10;83.90;;;;;;4934310;29;20438;-70
2021/05/09 12:30:43;;;;;;;2.60;2.40;;;24.10;83.70;;;;;;4933339;29;20434;-70
2021/05/09 12:33:09;;;;;;;2.90;2.70;;;24.10;83.30;;;;;;4934011;29;20513;-70
2021/05/09 12:35:48;;;;;;;2.60;2.40;;;24.10;83.90;;;;;;4933667;29;20477;-70
2021/05/09 12:38:26;;;;;;;5.40;2.67;;;24.10;83.80;;;;;;4924834;29;20183;-70
2021/05/09 12:41:07;;;;;;;3.63;2.73;;;24.20;84.50;;;;;;4913985;29;20435;-71
2021/05/09 12:43:50;;;;;;;3.00;2.70;;;24.20;84.60;;;;;;4915370;29;20434;-71
2021/05/09 12:46:48;;;;;;;2.87;2.67;;;24.30;83.90;;;;;;4914903;29;20474;-71
2021/05/09 12:49:14;;;;;;;2.70;2.50;;;24.30;83.80;;;;;;4916376;29;20454;-70
2021/05/09 12:51:50;;;;;;;5.50;2.87;;;24.30;84.20;;;;;;4930087;29;20448;-70
2021/05/09 12:54:32;;;;;;;5.00;2.60;;;24.40;83.70;;;;;;4932679;29;20790;-71
2021/05/09 12:57:13;;;;;;;3.03;2.63;;;24.40;84.00;;;;;;4935287;29;20425;-70
2021/05/09 13:00:03;;;;;;;3.73;2.60;;;24.50;83.90;;;;;;4930331;29;20421;-70
2021/05/09 13:02:42;;;;;;;3.07;2.87;;;24.60;83.20;;;;;;4927620;29;20421;-70